Kezdőlap
METAR-TAF:

METAR-TAF

Repülőterek :

Iqaluiti repülőtér

Iqaluit, Nunavut, Kanada

földrajzi szélesség: 63-45N, földrajzi hosszúság: 068-33W, magasság: 34 m

Jelenlegi meteorológiai megfigyelések

A jelentés 48 perccel ezelõtt készült, 17:00 UTC
Északi szél 8 kt
Hőmérséklet -7°C
Páratartalom 57%
Légköri nyomás 1005 hPa
Látótávolság: 48.3 km
Szórványos felhőzet 3700 lábon
Szakadozott felhőzet 25000 lábon

METAR: CYFB 171700Z 35008KT 30SM SCT037 BKN250 M07/M14 A2969 RMK SC4CI2 SLP059

Idő: 13:48 (17:48 UTC)

Előrejelzés

A jelentés 10 perccel ezelõtt készült, 17:38 UTC
Az előrejelzés 17-én 18 óra UTC és 18-én 18 óra UTC között érvényes
Északi szél 8 kt
Látótávolság: 10 km
Szórványos felhőzet 3000 lábon
17-én 18 óra UTC és 18-én 18 óra UTC között ideiglenes
Látótávolság: 10 km
Szakadozott felhőzet 3000 lábon
enyhe havazás

TAF: CYFB 171738Z 1718/1818 35008KT P6SM SCT030 TEMPO 1718/1818 P6SM -SN BKN030 RMK NXT FCST BY 180000Z

Meteorológiai megfigyelések és előrejelzések több, mint 4000 repülőtéren (METAR és TAF jelentéseket).

A térképen piros és sárga pontok jelzik az elérhető meteorológiai állomásokat.

Mozgassa az egeret a pont fölött, hogy megjelenjen az állomás neve.

Azután kattintson az időjárási megfigyelések és előrejelzések megtekintéséhez.

A térkép megváltoztatása: kattintson a fekete keresztel jelölt zöld gombra ráközelítéshez, a vonallal jelölt zöld gombra távolításhoz, vagy a zöld nyilakra a szomszédos térképek eléréséhez.


METAR-TAF: